createdAt,value
2016-06-03T00:00:29.201Z,0
2016-06-03T00:01:29.249Z,0
2016-06-03T00:02:29.284Z,0
2016-06-03T00:03:29.318Z,0
2016-06-03T00:04:29.351Z,0
2016-06-03T00:05:29.416Z,0
2016-06-03T00:06:29.419Z,0
2016-06-03T00:07:29.453Z,0
2016-06-03T00:08:29.503Z,0
2016-06-03T00:09:29.520Z,0
2016-06-03T00:10:31.102Z,0
2016-06-03T00:11:29.463Z,0
2016-06-03T00:12:29.654Z,0
2016-06-03T00:13:29.672Z,0
2016-06-03T00:14:29.706Z,0
2016-06-03T00:15:29.756Z,0
2016-06-03T00:16:29.805Z,0
2016-06-03T00:17:29.839Z,0
2016-06-03T00:18:29.874Z,0
2016-06-03T00:19:29.892Z,0
2016-06-03T00:20:29.942Z,0
2016-06-03T00:21:29.990Z,0
2016-06-03T00:22:30.010Z,0
2016-06-03T00:23:29.887Z,0
2016-06-03T00:24:30.093Z,0
2016-06-03T00:25:30.235Z,0
2016-06-03T00:26:30.160Z,0
2016-06-03T00:27:30.210Z,0
2016-06-03T00:28:30.228Z,0
2016-06-03T00:29:30.263Z,0
2016-06-03T00:30:30.312Z,0
2016-06-03T00:31:30.345Z,0
2016-06-03T00:32:30.412Z,0
2016-06-03T00:33:30.414Z,0
2016-06-03T00:34:30.448Z,0
2016-06-03T00:35:30.481Z,0
2016-06-03T00:36:30.531Z,0
2016-06-03T00:37:30.565Z,0
2016-06-03T00:38:30.598Z,0
2016-06-03T00:39:30.508Z,0
2016-06-03T00:40:31.511Z,0
2016-06-03T00:41:30.717Z,0
2016-06-03T00:42:30.751Z,0
2016-06-03T00:43:30.784Z,0
2016-06-03T00:44:30.818Z,0
2016-06-03T00:45:30.852Z,0
2016-06-03T00:46:30.902Z,0
2016-06-03T00:47:30.935Z,0
2016-06-03T00:48:30.970Z,0
2016-06-03T00:49:31.019Z,0
2016-06-03T00:50:31.053Z,0
2016-06-03T00:51:31.087Z,0
2016-06-03T00:52:31.121Z,0
2016-06-03T00:53:31.171Z,0
2016-06-03T00:54:31.204Z,0
2016-06-03T00:55:31.113Z,0
2016-06-03T00:56:31.272Z,0
2016-06-03T00:57:31.307Z,0
2016-06-03T00:58:31.357Z,0
2016-06-03T00:59:31.390Z,0
2016-06-03T01:00:31.423Z,0
2016-06-03T01:01:31.473Z,0
2016-06-03T01:02:31.507Z,0
2016-06-03T01:03:31.526Z,0
2016-06-03T01:04:31.559Z,0
2016-06-03T01:05:31.593Z,0
2016-06-03T01:06:31.643Z,0
2016-06-03T01:07:31.677Z,0
2016-06-03T01:08:31.727Z,0
2016-06-03T01:09:32.057Z,0
2016-06-03T01:10:31.654Z,0
2016-06-03T01:11:31.844Z,0
2016-06-03T01:12:31.878Z,0
2016-06-03T01:13:31.911Z,0
2016-06-03T01:14:31.930Z,0
2016-06-03T01:15:31.995Z,0
2016-06-03T01:16:32.030Z,0
2016-06-03T01:17:32.047Z,0
2016-06-03T01:18:32.097Z,0
2016-06-03T01:19:32.116Z,0
2016-06-03T01:20:32.180Z,0
2016-06-03T01:21:32.214Z,0
2016-06-03T01:22:32.092Z,0
2016-06-03T01:23:32.267Z,0
2016-06-03T01:24:32.316Z,0
2016-06-03T01:25:33.944Z,0
2016-06-03T01:26:32.213Z,0
2016-06-03T01:27:32.418Z,0
2016-06-03T01:28:32.468Z,0
2016-06-03T01:29:32.501Z,0
2016-06-03T01:30:32.535Z,0
2016-06-03T01:31:32.570Z,0
2016-06-03T01:32:32.604Z,0
2016-06-03T01:33:32.637Z,0
2016-06-03T01:34:32.531Z,0
2016-06-03T01:35:32.721Z,0
2016-06-03T01:36:32.754Z,0
2016-06-03T01:37:32.789Z,0
2016-06-03T01:38:32.807Z,0
2016-06-03T01:39:33.309Z,0
2016-06-03T01:40:33.110Z,0
2016-06-03T01:41:32.925Z,0
2016-06-03T01:42:32.989Z,0
2016-06-03T01:43:33.008Z,0
2016-06-03T01:44:33.042Z,0
2016-06-03T01:45:33.076Z,0
2016-06-03T01:46:33.125Z,0
2016-06-03T01:47:33.144Z,0
2016-06-03T01:48:33.178Z,0
2016-06-03T01:49:33.227Z,0
2016-06-03T01:50:33.277Z,0
2016-06-03T01:51:33.311Z,0
2016-06-03T01:52:33.330Z,0
2016-06-03T01:53:33.380Z,0
2016-06-03T01:54:33.412Z,0
2016-06-03T01:55:33.321Z,0
2016-06-03T01:56:33.496Z,0
2016-06-03T01:57:33.515Z,0
2016-06-03T01:58:33.407Z,0
2016-06-03T01:59:33.613Z,0
2016-06-03T02:00:33.632Z,0
2016-06-03T02:01:33.682Z,0
2016-06-03T02:02:33.715Z,0
2016-06-03T02:03:33.766Z,0
2016-06-03T02:04:33.799Z,0
2016-06-03T02:05:33.817Z,0
2016-06-03T02:06:33.851Z,0
2016-06-03T02:07:33.901Z,0
2016-06-03T02:08:33.934Z,0
2016-06-03T02:09:33.985Z,0
2016-06-03T02:10:34.253Z,0
2016-06-03T02:11:34.053Z,0
2016-06-03T02:12:34.086Z,0
2016-06-03T02:13:34.120Z,0
2016-06-03T02:14:34.154Z,0
2016-06-03T02:15:34.204Z,0
2016-06-03T02:16:34.222Z,0
2016-06-03T02:17:34.256Z,0
2016-06-03T02:18:34.289Z,0
2016-06-03T02:19:34.339Z,0
2016-06-03T02:20:34.373Z,0
2016-06-03T02:21:34.407Z,0
2016-06-03T02:22:34.457Z,0
2016-06-03T02:23:34.491Z,0
2016-06-03T02:24:34.758Z,0
2016-06-03T02:25:34.918Z,0
2016-06-03T02:26:34.624Z,0
2016-06-03T02:27:34.641Z,0
2016-06-03T02:28:34.691Z,0
2016-06-03T02:29:34.741Z,0
2016-06-03T02:30:34.760Z,0
2016-06-03T02:31:34.794Z,0
2016-06-03T02:32:34.827Z,0
2016-06-03T02:33:34.877Z,0
2016-06-03T02:34:34.896Z,0
2016-06-03T02:35:34.930Z,0
2016-06-03T02:36:34.963Z,0
2016-06-03T02:37:35.013Z,0
2016-06-03T02:38:34.906Z,0
2016-06-03T02:39:35.424Z,0
2016-06-03T02:40:36.724Z,0
2016-06-03T02:41:35.148Z,0
2016-06-03T02:42:35.042Z,0
2016-06-03T02:43:35.076Z,0
2016-06-03T02:44:35.266Z,0
2016-06-03T02:45:35.315Z,0
2016-06-03T02:46:35.350Z,0
2016-06-03T02:47:35.384Z,0
2016-06-03T02:48:35.433Z,0
2016-06-03T02:49:35.310Z,0
2016-06-03T02:50:35.500Z,0
2016-06-03T02:51:35.535Z,0
2016-06-03T02:52:35.569Z,0
2016-06-03T02:53:35.602Z,0
2016-06-03T02:54:35.761Z,0
2016-06-03T02:55:36.467Z,0
2016-06-03T02:56:35.564Z,0
2016-06-03T02:57:35.738Z,0
2016-06-03T02:58:35.788Z,0
2016-06-03T02:59:35.822Z,0
2016-06-03T03:00:35.856Z,0
2016-06-03T03:01:35.890Z,0
2016-06-03T03:02:35.940Z,0
2016-06-03T03:03:35.973Z,0
2016-06-03T03:04:36.023Z,0
2016-06-03T03:05:36.041Z,0
2016-06-03T03:06:36.090Z,0
2016-06-03T03:07:36.110Z,0
2016-06-03T03:08:36.002Z,0
2016-06-03T03:09:36.036Z,0
2016-06-03T03:10:36.242Z,0
2016-06-03T03:11:36.260Z,0
2016-06-03T03:12:36.310Z,0
2016-06-03T03:13:36.329Z,0
2016-06-03T03:14:36.362Z,0
2016-06-03T03:15:36.443Z,0
2016-06-03T03:16:36.445Z,0
2016-06-03T03:17:36.480Z,0
2016-06-03T03:18:36.514Z,0
2016-06-03T03:19:36.563Z,0
2016-06-03T03:20:36.581Z,0
2016-06-03T03:21:36.646Z,0
2016-06-03T03:22:36.665Z,5
2016-06-03T03:23:36.700Z,5
2016-06-03T03:24:36.749Z,5
2016-06-03T03:25:36.908Z,5
2016-06-03T03:26:36.801Z,5
2016-06-03T03:27:36.850Z,5
2016-06-03T03:28:36.587Z,5
2016-06-03T03:29:36.933Z,5
2016-06-03T03:30:36.968Z,5
2016-06-03T03:31:36.985Z,5
2016-06-03T03:32:37.036Z,5
2016-06-03T03:33:37.069Z,5
2016-06-03T03:34:37.119Z,5
2016-06-03T03:35:37.137Z,5
2016-06-03T03:36:37.172Z,5
2016-06-03T03:37:37.220Z,5
2016-06-03T03:38:37.254Z,5
2016-06-03T03:39:37.164Z,5
2016-06-03T03:40:37.682Z,10
2016-06-03T03:41:37.373Z,10
2016-06-03T03:42:37.390Z,10
2016-06-03T03:43:37.440Z,10
2016-06-03T03:44:37.317Z,10
2016-06-03T03:45:37.509Z,10
2016-06-03T03:46:37.558Z,10
2016-06-03T03:47:37.592Z,10
2016-06-03T03:48:37.625Z,15
2016-06-03T03:49:37.675Z,15
2016-06-03T03:50:37.694Z,15
2016-06-03T03:51:37.587Z,15
2016-06-03T03:52:37.778Z,15
2016-06-03T03:53:37.811Z,15
2016-06-03T03:54:37.705Z,15
2016-06-03T03:55:38.097Z,15
2016-06-03T03:56:37.913Z,15
2016-06-03T03:57:37.962Z,15
2016-06-03T03:58:37.997Z,15
2016-06-03T03:59:38.046Z,15
2016-06-03T04:00:38.064Z,15
2016-06-03T04:01:37.942Z,15
2016-06-03T04:02:38.148Z,15
2016-06-03T04:03:38.166Z,15
2016-06-03T04:04:38.246Z,15
2016-06-03T04:05:38.249Z,15
2016-06-03T04:06:38.283Z,15
2016-06-03T04:07:38.317Z,15
2016-06-03T04:08:38.368Z,15
2016-06-03T04:09:38.401Z,15
2016-06-03T04:10:38.747Z,20
2016-06-03T04:11:38.484Z,20
2016-06-03T04:12:38.518Z,20
2016-06-03T04:13:38.552Z,20
2016-06-03T04:14:38.571Z,20
2016-06-03T04:15:38.620Z,20
2016-06-03T04:16:38.684Z,20
2016-06-03T04:17:38.703Z,20
2016-06-03T04:18:38.737Z,20
2016-06-03T04:19:38.772Z,20
2016-06-03T04:20:38.821Z,20
2016-06-03T04:21:38.870Z,20
2016-06-03T04:22:38.905Z,20
2016-06-03T04:23:38.923Z,20
2016-06-03T04:24:38.973Z,25
2016-06-03T04:25:40.256Z,25
2016-06-03T04:26:39.056Z,25
2016-06-03T04:27:38.918Z,30
2016-06-03T04:28:39.108Z,30
2016-06-03T04:29:39.142Z,30
2016-06-03T04:30:39.192Z,30
2016-06-03T04:31:39.225Z,30
2016-06-03T04:32:39.275Z,30
2016-06-03T04:33:39.310Z,30
2016-06-03T04:34:39.328Z,30
2016-06-03T04:35:39.408Z,25
2016-06-03T04:36:39.411Z,25
2016-06-03T04:37:39.460Z,25
2016-06-03T04:38:39.479Z,30
2016-06-03T04:39:39.371Z,30
2016-06-03T04:40:40.157Z,30
2016-06-03T04:41:39.596Z,25
2016-06-03T04:42:39.646Z,25
2016-06-03T04:43:39.664Z,25
2016-06-03T04:44:39.714Z,25
2016-06-03T04:45:39.748Z,25
2016-06-03T04:46:39.640Z,25
2016-06-03T04:47:39.832Z,25
2016-06-03T04:48:39.709Z,25
2016-06-03T04:49:39.914Z,25
2016-06-03T04:50:39.917Z,25
2016-06-03T04:51:39.811Z,25
2016-06-03T04:52:40.017Z,25
2016-06-03T04:53:40.050Z,25
2016-06-03T04:54:40.475Z,25
2016-06-03T04:55:39.665Z,20
2016-06-03T04:56:40.012Z,20
2016-06-03T04:57:40.233Z,20
2016-06-03T04:58:40.236Z,20
2016-06-03T04:59:40.286Z,25
2016-06-03T05:00:40.303Z,25
2016-06-03T05:01:40.352Z,25
2016-06-03T05:02:40.388Z,25
2016-06-03T05:03:40.405Z,30
2016-06-03T05:04:40.299Z,30
2016-06-03T05:05:40.488Z,30
2016-06-03T05:06:40.366Z,30
2016-06-03T05:07:40.572Z,35
2016-06-03T05:08:40.622Z,35
2016-06-03T05:09:41.124Z,30
2016-06-03T05:10:41.252Z,30
2016-06-03T05:11:40.740Z,35
2016-06-03T05:12:40.758Z,35
2016-06-03T05:13:40.792Z,35
2016-06-03T05:14:40.826Z,35
2016-06-03T05:15:40.719Z,35
2016-06-03T05:16:40.909Z,35
2016-06-03T05:17:40.958Z,40
2016-06-03T05:18:40.976Z,40
2016-06-03T05:19:41.011Z,40
2016-06-03T05:20:41.045Z,40
2016-06-03T05:21:41.125Z,45
2016-06-03T05:22:41.144Z,45
2016-06-03T05:23:41.006Z,45
2016-06-03T05:24:41.275Z,45
2016-06-03T05:25:41.558Z,45
2016-06-03T05:26:41.280Z,45
2016-06-03T05:27:41.314Z,45
2016-06-03T05:28:41.348Z,45
2016-06-03T05:29:41.381Z,45
2016-06-03T05:30:41.447Z,45
2016-06-03T05:31:41.466Z,50
2016-06-03T05:32:41.484Z,50
2016-06-03T05:33:41.532Z,55
2016-06-03T05:34:41.582Z,55
2016-06-03T05:35:41.632Z,60
2016-06-03T05:36:41.682Z,65
2016-06-03T05:37:41.371Z,65
2016-06-03T05:38:41.718Z,75
2016-06-03T05:39:41.971Z,80
2016-06-03T05:40:42.427Z,80
2016-06-03T05:41:41.835Z,75
2016-06-03T05:42:41.870Z,70
2016-06-03T05:43:41.904Z,70
2016-06-03T05:44:41.797Z,70
2016-06-03T05:45:41.815Z,70
2016-06-03T05:46:42.037Z,70
2016-06-03T05:47:42.071Z,65
2016-06-03T05:48:41.949Z,60
2016-06-03T05:49:42.139Z,55
2016-06-03T05:50:42.173Z,60
2016-06-03T05:51:42.223Z,55
2016-06-03T05:52:42.240Z,55
2016-06-03T05:53:42.289Z,55
2016-06-03T05:54:44.042Z,55
2016-06-03T05:55:42.780Z,55
2016-06-03T05:56:42.391Z,55
2016-06-03T05:57:42.425Z,55
2016-06-03T05:58:42.506Z,50
2016-06-03T05:59:42.509Z,55
2016-06-03T06:00:42.543Z,60
2016-06-03T06:01:42.577Z,65
2016-06-03T06:02:42.627Z,70
2016-06-03T06:03:42.505Z,75
2016-06-03T06:04:42.694Z,85
2016-06-03T06:05:42.728Z,90
2016-06-03T06:06:42.778Z,90
2016-06-03T06:07:42.797Z,90
2016-06-03T06:08:42.830Z,100
2016-06-03T06:09:43.130Z,100
2016-06-03T06:10:42.804Z,100
2016-06-03T06:11:42.949Z,110
2016-06-03T06:12:42.840Z,115
2016-06-03T06:13:43.031Z,115
2016-06-03T06:14:43.831Z,120
2016-06-03T06:15:43.099Z,125
2016-06-03T06:16:43.148Z,125
2016-06-03T06:17:43.167Z,130
2016-06-03T06:18:43.217Z,130
2016-06-03T06:19:43.251Z,140
2016-06-03T06:20:43.300Z,145
2016-06-03T06:21:43.334Z,140
2016-06-03T06:22:43.368Z,135
2016-06-03T06:23:43.402Z,135
2016-06-03T06:24:44.889Z,140
2016-06-03T06:25:43.517Z,135
2016-06-03T06:26:43.520Z,125
2016-06-03T06:27:43.570Z,120
2016-06-03T06:28:43.430Z,115
2016-06-03T06:29:43.636Z,110
2016-06-03T06:30:43.702Z,105
2016-06-03T06:31:43.705Z,100
2016-06-03T06:32:43.722Z,100
2016-06-03T06:33:43.772Z,100
2016-06-03T06:34:43.822Z,105
2016-06-03T06:35:43.841Z,110
2016-06-03T06:36:43.921Z,110
2016-06-03T06:37:43.768Z,115
2016-06-03T06:38:43.958Z,115
2016-06-03T06:39:44.632Z,115
2016-06-03T06:40:44.714Z,125
2016-06-03T06:41:44.075Z,135
2016-06-03T06:42:44.140Z,140
2016-06-03T06:43:44.159Z,145
2016-06-03T06:44:44.208Z,145
2016-06-03T06:45:44.242Z,145
2016-06-03T06:46:44.276Z,145
2016-06-03T06:47:44.319Z,140
2016-06-03T06:48:44.411Z,140
2016-06-03T06:49:44.472Z,135
2016-06-03T06:50:44.534Z,130
2016-06-03T06:51:44.595Z,130
2016-06-03T06:52:44.485Z,130
2016-06-03T06:53:44.403Z,125
2016-06-03T06:54:44.759Z,125
2016-06-03T06:55:44.492Z,120
2016-06-03T06:56:44.833Z,125
2016-06-03T06:57:44.870Z,140
2016-06-03T06:58:44.923Z,150
2016-06-03T06:59:44.944Z,145
2016-06-03T07:00:44.858Z,150
2016-06-03T07:01:45.036Z,165
2016-06-03T07:02:45.086Z,160
2016-06-03T07:03:44.965Z,155
2016-06-03T07:04:45.172Z,170
2016-06-03T07:05:45.207Z,175
2016-06-03T07:06:45.226Z,180
2016-06-03T07:07:45.276Z,175
2016-06-03T07:08:45.312Z,170
2016-06-03T07:09:45.487Z,145
2016-06-03T07:10:46.194Z,130
2016-06-03T07:11:45.448Z,110
2016-06-03T07:12:45.481Z,110
2016-06-03T07:13:45.531Z,110
2016-06-03T07:14:45.549Z,110
2016-06-03T07:15:45.583Z,115
2016-06-03T07:16:45.664Z,115
2016-06-03T07:17:45.525Z,115
2016-06-03T07:18:45.700Z,110
2016-06-03T07:19:45.750Z,110
2016-06-03T07:20:45.799Z,110
2016-06-03T07:21:45.661Z,115
2016-06-03T07:22:45.867Z,115
2016-06-03T07:23:45.886Z,120
2016-06-03T07:24:46.528Z,125
2016-06-03T07:25:46.361Z,130
2016-06-03T07:26:46.003Z,135
2016-06-03T07:27:46.053Z,140
2016-06-03T07:28:46.102Z,140
2016-06-03T07:29:46.121Z,140
2016-06-03T07:30:46.170Z,145
2016-06-03T07:31:46.220Z,150
2016-06-03T07:32:46.269Z,155
2016-06-03T07:33:46.288Z,175
2016-06-03T07:34:46.321Z,190
2016-06-03T07:35:46.371Z,220
2016-06-03T07:36:46.405Z,225
2016-06-03T07:37:46.283Z,250
2016-06-03T07:38:46.473Z,265
2016-06-03T07:39:47.132Z,260
2016-06-03T07:40:46.666Z,245
2016-06-03T07:41:46.279Z,230
2016-06-03T07:42:46.640Z,235
2016-06-03T07:43:46.673Z,250
2016-06-03T07:44:46.723Z,245
2016-06-03T07:45:46.585Z,240
2016-06-03T07:46:46.792Z,230
2016-06-03T07:47:46.825Z,240
2016-06-03T07:48:46.875Z,245
2016-06-03T07:49:46.909Z,235
2016-06-03T07:50:46.942Z,220
2016-06-03T07:51:46.992Z,240
2016-06-03T07:52:47.042Z,210
2016-06-03T07:53:47.075Z,225
2016-06-03T07:54:47.438Z,195
2016-06-03T07:55:47.159Z,195
2016-06-03T07:56:47.194Z,195
2016-06-03T07:57:47.242Z,170
2016-06-03T07:58:47.277Z,165
2016-06-03T07:59:47.310Z,160
2016-06-03T08:00:47.344Z,165
2016-06-03T08:01:47.222Z,170
2016-06-03T08:02:47.412Z,180
2016-06-03T08:03:47.447Z,190
2016-06-03T08:04:47.496Z,190
2016-06-03T08:05:47.546Z,200
2016-06-03T08:06:47.423Z,205
2016-06-03T08:07:47.644Z,210
2016-06-03T08:08:47.647Z,215
2016-06-03T08:09:48.696Z,225
2016-06-03T08:10:47.824Z,240
2016-06-03T08:11:47.780Z,240
2016-06-03T08:12:47.658Z,230
2016-06-03T08:13:47.848Z,220
2016-06-03T08:14:47.898Z,215
2016-06-03T08:15:47.932Z,220
2016-06-03T08:16:47.965Z,210
2016-06-03T08:17:48.000Z,210
2016-06-03T08:18:48.065Z,210
2016-06-03T08:19:48.067Z,205
2016-06-03T08:20:48.133Z,210
2016-06-03T08:21:48.167Z,215
2016-06-03T08:22:48.200Z,210
2016-06-03T08:23:48.250Z,205
2016-06-03T08:24:49.581Z,200
2016-06-03T08:25:48.678Z,195
2016-06-03T08:26:48.352Z,195
2016-06-03T08:27:48.402Z,200
2016-06-03T08:28:48.451Z,200
2016-06-03T08:29:48.469Z,205
2016-06-03T08:30:48.519Z,215
2016-06-03T08:31:48.569Z,225
2016-06-03T08:32:48.446Z,240
2016-06-03T08:33:48.621Z,265
2016-06-03T08:34:48.670Z,270
2016-06-03T08:35:48.720Z,265
2016-06-03T08:36:48.738Z,270
2016-06-03T08:37:48.788Z,270
2016-06-03T08:38:48.838Z,285
2016-06-03T08:39:49.121Z,285
2016-06-03T08:40:49.499Z,280
2016-06-03T08:41:48.939Z,275
2016-06-03T08:42:48.973Z,280
2016-06-03T08:43:49.038Z,275
2016-06-03T08:44:49.056Z,285
2016-06-03T08:45:49.091Z,265
2016-06-03T08:46:49.156Z,265
2016-06-03T08:47:49.173Z,265
2016-06-03T08:48:49.240Z,270
2016-06-03T08:49:49.257Z,275
2016-06-03T08:50:49.135Z,285
2016-06-03T08:51:49.342Z,305
2016-06-03T08:52:49.375Z,325
2016-06-03T08:53:49.424Z,345
2016-06-03T08:54:49.318Z,365
2016-06-03T08:55:50.398Z,375
2016-06-03T08:56:49.542Z,385
2016-06-03T08:57:49.576Z,370
2016-06-03T08:58:49.610Z,360
2016-06-03T08:59:49.659Z,355
2016-06-03T09:00:49.725Z,350
2016-06-03T09:01:49.743Z,340
2016-06-03T09:02:49.761Z,340
2016-06-03T09:03:49.811Z,340
2016-06-03T09:04:49.877Z,340
2016-06-03T09:05:49.598Z,345
2016-06-03T09:06:49.944Z,350
2016-06-03T09:07:49.977Z,355
2016-06-03T09:08:50.027Z,360
2016-06-03T09:09:50.421Z,375
2016-06-03T09:10:51.236Z,405
2016-06-03T09:11:50.176Z,435
2016-06-03T09:12:50.179Z,480
2016-06-03T09:13:50.229Z,530
2016-06-03T09:14:50.279Z,535
2016-06-03T09:15:50.718Z,525
2016-06-03T09:16:50.362Z,485
2016-06-03T09:17:50.380Z,465
2016-06-03T09:18:50.446Z,440
2016-06-03T09:19:50.495Z,425
2016-06-03T09:20:50.513Z,410
2016-06-03T09:21:50.547Z,375
2016-06-03T09:22:50.596Z,360
2016-06-03T09:23:50.490Z,340
2016-06-03T09:24:50.696Z,335
2016-06-03T09:25:51.183Z,340
2016-06-03T09:26:50.778Z,345
2016-06-03T09:27:50.798Z,365
2016-06-03T09:28:50.847Z,395
2016-06-03T09:29:50.724Z,415
2016-06-03T09:30:50.759Z,410
2016-06-03T09:31:50.980Z,405
2016-06-03T09:32:51.013Z,445
2016-06-03T09:33:51.047Z,490
2016-06-03T09:34:51.098Z,475
2016-06-03T09:35:51.131Z,425
2016-06-03T09:36:51.181Z,410
2016-06-03T09:37:51.199Z,430
2016-06-03T09:38:51.264Z,440
2016-06-03T09:39:51.736Z,430
2016-06-03T09:40:51.738Z,400
2016-06-03T09:41:51.366Z,460
2016-06-03T09:42:51.432Z,430
2016-06-03T09:43:51.466Z,400
2016-06-03T09:44:51.516Z,360
2016-06-03T09:45:51.565Z,320
2016-06-03T09:46:51.582Z,330
2016-06-03T09:47:51.633Z,325
2016-06-03T09:48:51.665Z,325
2016-06-03T09:49:51.701Z,330
2016-06-03T09:50:51.765Z,335
2016-06-03T09:51:51.784Z,340
2016-06-03T09:52:51.849Z,330
2016-06-03T09:53:51.898Z,345
2016-06-03T09:54:52.370Z,390
2016-06-03T09:55:51.982Z,445
2016-06-03T09:56:52.000Z,480
2016-06-03T09:57:52.034Z,535
2016-06-03T09:58:51.927Z,560
2016-06-03T09:59:52.117Z,545
2016-06-03T10:00:52.168Z,535
2016-06-03T10:01:52.201Z,555
2016-06-03T10:02:52.251Z,565
2016-06-03T10:03:52.285Z,565
2016-06-03T10:04:52.366Z,525
2016-06-03T10:05:52.368Z,580
2016-06-03T10:06:52.419Z,535
2016-06-03T10:07:52.467Z,530
2016-06-03T10:08:52.501Z,545
2016-06-03T10:09:52.755Z,600
2016-06-03T10:10:52.835Z,625
2016-06-03T10:11:52.650Z,635
2016-06-03T10:12:52.513Z,775
2016-06-03T10:13:52.562Z,670
2016-06-03T10:14:52.768Z,645
2016-06-03T10:15:52.801Z,605
2016-06-03T10:16:52.851Z,600
2016-06-03T10:17:52.885Z,580
2016-06-03T10:18:52.935Z,655
2016-06-03T10:19:52.968Z,695
2016-06-03T10:20:53.002Z,680
2016-06-03T10:21:53.068Z,715
2016-06-03T10:22:53.086Z,650
2016-06-03T10:23:53.135Z,635
2016-06-03T10:24:53.450Z,615
2016-06-03T10:25:53.609Z,610
2016-06-03T10:26:53.269Z,635
2016-06-03T10:27:53.318Z,665
2016-06-03T10:28:53.368Z,680
2016-06-03T10:29:53.401Z,705
2016-06-03T10:30:53.451Z,870
2016-06-03T10:31:53.486Z,915
2016-06-03T10:32:53.534Z,875
2016-06-03T10:33:53.428Z,1275
2016-06-03T10:34:53.633Z,1220
2016-06-03T10:35:53.667Z,1310
2016-06-03T10:36:53.702Z,1830
2016-06-03T10:37:53.751Z,895
2016-06-03T10:38:53.786Z,1075
2016-06-03T10:39:54.491Z,1270
2016-06-03T10:40:54.228Z,1185
2016-06-03T10:41:53.933Z,1250
2016-06-03T10:42:53.983Z,770
2016-06-03T10:43:54.033Z,765
2016-06-03T10:44:54.066Z,1700
2016-06-03T10:45:54.116Z,1815
2016-06-03T10:46:54.166Z,2150
2016-06-03T10:47:54.044Z,2120
2016-06-03T10:48:54.249Z,2095
2016-06-03T10:49:54.299Z,2090
2016-06-03T10:50:54.365Z,1935
2016-06-03T10:51:54.399Z,1900
2016-06-03T10:52:54.448Z,1890
2016-06-03T10:53:54.497Z,1825
2016-06-03T10:54:55.860Z,1750
2016-06-03T10:55:54.862Z,1745
2016-06-03T10:56:54.631Z,1805
2016-06-03T10:57:54.681Z,1785
2016-06-03T10:58:54.729Z,1750
2016-06-03T10:59:54.779Z,1810
2016-06-03T11:00:54.828Z,1840
2016-06-03T11:01:54.878Z,1855
2016-06-03T11:02:54.944Z,1735
2016-06-03T11:03:54.978Z,1765
2016-06-03T11:04:55.058Z,1695
2016-06-03T11:05:55.092Z,1650
2016-06-03T11:06:55.141Z,1760
2016-06-03T11:07:55.191Z,1895
2016-06-03T11:08:55.256Z,1875
2016-06-03T11:09:55.369Z,2010
2016-06-03T11:10:55.543Z,1795
2016-06-03T11:11:55.405Z,1695
2016-06-03T11:12:55.439Z,1980
2016-06-03T11:13:55.504Z,1985
2016-06-03T11:14:55.413Z,1955
2016-06-03T11:15:55.618Z,1860
2016-06-03T11:16:55.652Z,1735
2016-06-03T11:17:55.718Z,1665
2016-06-03T11:18:55.815Z,1765
2016-06-03T11:19:55.818Z,1810
2016-06-03T11:20:55.882Z,2045
2016-06-03T11:21:55.916Z,2015
2016-06-03T11:22:55.966Z,1985
2016-06-03T11:23:56.031Z,1995
2016-06-03T11:24:56.674Z,1740
2016-06-03T11:25:56.005Z,1925
2016-06-03T11:26:56.180Z,1815
2016-06-03T11:27:56.246Z,1865
2016-06-03T11:28:56.139Z,1840
2016-06-03T11:29:56.329Z,1700
2016-06-03T11:30:56.409Z,1545
2016-06-03T11:31:56.443Z,1335
2016-06-03T11:32:56.508Z,1305
2016-06-03T11:33:56.558Z,1185
2016-06-03T11:34:56.608Z,1510
2016-06-03T11:35:56.673Z,1670
2016-06-03T11:36:56.723Z,1750
2016-06-03T11:37:56.772Z,1705
2016-06-03T11:38:56.837Z,1725
2016-06-03T11:39:57.669Z,1875
2016-06-03T11:40:57.858Z,1895
2016-06-03T11:41:56.986Z,1755
2016-06-03T11:42:57.052Z,1745
2016-06-03T11:43:57.085Z,1620
2016-06-03T11:44:56.978Z,1540
2016-06-03T11:45:57.199Z,1315
2016-06-03T11:46:57.249Z,1645
2016-06-03T11:47:57.299Z,1735
2016-06-03T11:48:57.380Z,1815
2016-06-03T11:49:57.446Z,1850
2016-06-03T11:50:57.463Z,1730
2016-06-03T11:51:57.513Z,1845
2016-06-03T11:52:57.593Z,1820
2016-06-03T11:53:57.471Z,1775
2016-06-03T11:54:57.536Z,1665
2016-06-03T11:55:58.304Z,1710
2016-06-03T11:56:57.807Z,1790
2016-06-03T11:57:57.732Z,1930
2016-06-03T11:58:57.891Z,1980
2016-06-03T11:59:57.956Z,1505
2016-06-03T12:00:58.006Z,645
2016-06-03T12:01:57.899Z,1600
2016-06-03T12:02:58.105Z,490
2016-06-03T12:03:58.170Z,450
2016-06-03T12:04:58.219Z,370
2016-06-03T12:05:58.270Z,355
2016-06-03T12:06:58.334Z,375
2016-06-03T12:07:58.399Z,400
2016-06-03T12:08:58.433Z,375
2016-06-03T12:09:58.733Z,330
2016-06-03T12:10:58.844Z,290
2016-06-03T12:11:58.598Z,235
2016-06-03T12:12:58.694Z,175
2016-06-03T12:13:58.681Z,145
2016-06-03T12:14:58.747Z,135
2016-06-03T12:15:58.796Z,130
2016-06-03T12:16:58.674Z,120
2016-06-03T12:17:58.895Z,120
2016-06-03T12:18:58.945Z,125
2016-06-03T12:19:58.979Z,125
2016-06-03T12:20:59.013Z,120
2016-06-03T12:21:59.093Z,120
2016-06-03T12:22:59.112Z,115
2016-06-03T12:23:59.162Z,115
2016-06-03T12:24:59.352Z,115
2016-06-03T12:26:00.104Z,115
2016-06-03T12:26:59.310Z,115
2016-06-03T12:27:59.375Z,115
2016-06-03T12:28:59.409Z,115
2016-06-03T12:29:59.443Z,115
2016-06-03T12:30:59.493Z,120
2016-06-03T12:31:59.542Z,125
2016-06-03T12:32:59.592Z,135
2016-06-03T12:33:59.626Z,140
2016-06-03T12:34:59.660Z,145
2016-06-03T12:35:59.553Z,155
2016-06-03T12:36:59.759Z,160
2016-06-03T12:37:59.792Z,180
2016-06-03T12:38:59.842Z,210
2016-06-03T12:40:00.330Z,215
2016-06-03T12:41:00.316Z,190
2016-06-03T12:41:59.991Z,175
2016-06-03T12:43:00.025Z,175
2016-06-03T12:43:59.762Z,175
2016-06-03T12:45:00.124Z,190
2016-06-03T12:46:00.158Z,200
2016-06-03T12:47:00.192Z,260
2016-06-03T12:48:00.241Z,330
2016-06-03T12:49:00.291Z,355
2016-06-03T12:50:00.357Z,645
2016-06-03T12:51:00.218Z,1655
2016-06-03T12:52:00.299Z,1660
2016-06-03T12:53:00.458Z,1725
2016-06-03T12:54:00.507Z,1755
2016-06-03T12:55:00.526Z,1735
2016-06-03T12:56:00.887Z,1610
2016-06-03T12:57:00.640Z,1595
2016-06-03T12:58:00.534Z,1330
2016-06-03T12:59:00.443Z,770
2016-06-03T13:00:00.634Z,1650
2016-06-03T13:01:00.668Z,935
2016-06-03T13:02:00.717Z,1715
2016-06-03T13:03:00.625Z,1630
2016-06-03T13:04:00.815Z,1560
2016-06-03T13:05:00.865Z,1565
2016-06-03T13:06:01.071Z,1540
2016-06-03T13:07:01.121Z,1590
2016-06-03T13:08:01.156Z,1655
2016-06-03T13:09:01.220Z,865
2016-06-03T13:10:01.628Z,1485
2016-06-03T13:11:01.601Z,1430
2016-06-03T13:12:01.369Z,1460
2016-06-03T13:13:01.418Z,1620
2016-06-03T13:14:01.483Z,1715
2016-06-03T13:15:01.517Z,1715
2016-06-03T13:16:01.567Z,1605
2016-06-03T13:17:01.616Z,1505
2016-06-03T13:18:01.682Z,1575
2016-06-03T13:19:01.731Z,1700
2016-06-03T13:20:01.765Z,1750
2016-06-03T13:21:01.846Z,1660
2016-06-03T13:22:01.896Z,1590
2016-06-03T13:23:01.930Z,1605
2016-06-03T13:24:01.994Z,1580
2016-06-03T13:25:02.404Z,1585
2016-06-03T13:26:02.109Z,1600
2016-06-03T13:27:02.159Z,1560
2016-06-03T13:28:02.193Z,1555
2016-06-03T13:29:02.258Z,1580
2016-06-03T13:30:02.168Z,1575
2016-06-03T13:31:02.201Z,1535
2016-06-03T13:32:02.266Z,1545
2016-06-03T13:33:02.487Z,1505
2016-06-03T13:34:02.521Z,1515
2016-06-03T13:35:02.462Z,1510
2016-06-03T13:36:02.651Z,1540
2016-06-03T13:37:03.280Z,1470
2016-06-03T13:38:02.782Z,1545
2016-06-03T13:39:02.817Z,1515
2016-06-03T13:40:06.037Z,1600
2016-06-03T13:41:03.822Z,1575
2016-06-03T13:42:02.964Z,1610
2016-06-03T13:43:03.030Z,1605
2016-06-03T13:44:02.939Z,1665
2016-06-03T13:45:03.144Z,1665
2016-06-03T13:46:03.242Z,1685
2016-06-03T13:47:03.260Z,1680
2016-06-03T13:48:03.324Z,1700
2016-06-03T13:49:03.375Z,1725
2016-06-03T13:50:03.408Z,1670
2016-06-03T13:51:03.458Z,1700
2016-06-03T13:52:03.507Z,1705
2016-06-03T13:53:03.572Z,1660
2016-06-03T13:54:03.638Z,1640
2016-06-03T13:55:03.688Z,1635
2016-06-03T13:56:04.409Z,1570
2016-06-03T13:57:03.818Z,1550
2016-06-03T13:58:03.851Z,1580
2016-06-03T13:59:03.901Z,1505
2016-06-03T14:00:03.951Z,1410
2016-06-03T14:01:04.015Z,960
2016-06-03T14:02:04.035Z,350